Time;durP1;ratioP1;P1;durP2;ratioP2;P2;SDS_P1;SDS_P2;PMS_P1;PMS_P2;Temp;Humidity;BMP_temperature;BMP_pressure;BME280_temperature;BME280_humidity;BME280_pressure;Samples;Min_cycle;Max_cycle;Signal;HPM_P1;HPM_P2
2021/10/16 00:00:19;;;;;;;4.78;1.92;;;;;;;;;;5149193;27;20030;-73
2021/10/16 00:02:45;;;;;;;5.68;1.90;;;;;;;;;;5149328;27;20019;-73
2021/10/16 00:05:11;;;;;;;5.18;2.05;;;;;;;;;;5148960;27;20133;-73
2021/10/16 00:07:38;;;;;;;7.05;2.00;;;;;;;;;;5148852;27;20019;-73
2021/10/16 00:10:04;;;;;;;5.85;1.80;;;;;;;;;;5147420;27;20168;-73
2021/10/16 00:12:31;;;;;;;3.67;1.80;;;;;;;;;;5148285;27;20395;-73
2021/10/16 00:14:57;;;;;;;4.40;1.80;;;;;;;;;;5148746;27;20031;-73
2021/10/16 00:17:23;;;;;;;7.47;1.85;;;;;;;;;;5148511;27;20037;-73
2021/10/16 00:19:49;;;;;;;6.68;2.15;;;;;;;;;;5149075;27;20029;-73
2021/10/16 00:22:20;;;;;;;6.70;1.98;;;;;;;;;;5147041;27;20029;-73
2021/10/16 00:24:46;;;;;;;3.65;1.60;;;;;;;;;;5148607;27;20023;-73
2021/10/16 00:27:12;;;;;;;4.60;1.75;;;;;;;;;;5148758;27;20134;-73
2021/10/16 00:29:38;;;;;;;5.35;2.10;;;;;;;;;;5148624;27;20060;-73
2021/10/16 00:32:04;;;;;;;6.57;2.05;;;;;;;;;;5148360;27;20271;-73
2021/10/16 00:34:31;;;;;;;7.20;2.60;;;;;;;;;;5146324;27;20854;-73
2021/10/16 00:36:57;;;;;;;8.55;2.03;;;;;;;;;;5148535;27;20536;-72
2021/10/16 00:39:23;;;;;;;6.57;1.92;;;;;;;;;;5148568;27;20026;-73
2021/10/16 00:41:49;;;;;;;6.03;1.67;;;;;;;;;;5148302;27;20050;-73
2021/10/16 00:44:22;;;;;;;3.10;1.80;;;;;;;;;;5146888;27;20030;-73
2021/10/16 00:46:48;;;;;;;5.63;1.60;;;;;;;;;;5148198;27;20067;-73
2021/10/16 00:49:14;;;;;;;4.68;1.80;;;;;;;;;;5148165;27;20037;-73
2021/10/16 00:51:41;;;;;;;6.45;1.90;;;;;;;;;;5148726;27;20101;-73
2021/10/16 00:54:08;;;;;;;4.65;1.67;;;;;;;;;;5147282;27;20042;-73
2021/10/16 00:56:41;;;;;;;4.38;1.83;;;;;;;;;;5147873;27;20019;-73
2021/10/16 00:59:08;;;;;;;3.42;1.90;;;;;;;;;;5148222;27;20043;-73
2021/10/16 01:01:34;;;;;;;3.78;1.60;;;;;;;;;;5148416;27;20025;-73
2021/10/16 01:04:01;;;;;;;3.25;1.60;;;;;;;;;;5148258;27;20074;-73
2021/10/16 01:06:27;;;;;;;6.55;1.80;;;;;;;;;;5146538;27;20026;-73
2021/10/16 01:08:55;;;;;;;3.42;1.80;;;;;;;;;;5147992;27;20026;-73
2021/10/16 01:11:27;;;;;;;4.95;1.63;;;;;;;;;;5148330;27;20146;-73
2021/10/16 01:13:54;;;;;;;4.10;1.90;;;;;;;;;;5148039;27;20039;-73
2021/10/16 01:16:21;;;;;;;5.00;1.77;;;;;;;;;;5146414;27;20023;-73
2021/10/16 01:18:47;;;;;;;5.55;1.70;;;;;;;;;;5148032;27;20033;-73
2021/10/16 01:21:14;;;;;;;4.15;1.80;;;;;;;;;;5148024;27;20022;-73
2021/10/16 01:23:40;;;;;;;2.78;1.40;;;;;;;;;;5147998;27;20022;-73
2021/10/16 01:26:07;;;;;;;4.35;1.98;;;;;;;;;;5147974;27;20030;-73
2021/10/16 01:28:33;;;;;;;5.03;1.80;;;;;;;;;;5146533;27;20027;-72
2021/10/16 01:30:59;;;;;;;6.00;2.40;;;;;;;;;;5148034;27;20026;-73
2021/10/16 01:33:28;;;;;;;6.25;2.50;;;;;;;;;;5147935;27;20181;-73
2021/10/16 01:36:05;;;;;;;5.57;1.98;;;;;;;;;;5147966;27;20067;-73
2021/10/16 01:38:31;;;;;;;5.13;1.80;;;;;;;;;;5147805;27;20408;-73
2021/10/16 01:40:58;;;;;;;7.88;2.22;;;;;;;;;;5146243;27;20645;-73
2021/10/16 01:43:24;;;;;;;6.10;1.92;;;;;;;;;;5136027;27;20035;-73
2021/10/16 01:45:52;;;;;;;7.00;2.33;;;;;;;;;;5129449;27;20030;-73
2021/10/16 01:48:22;;;;;;;7.53;1.90;;;;;;;;;;5130875;27;20019;-73
2021/10/16 01:50:48;;;;;;;4.68;1.73;;;;;;;;;;5131187;27;20098;-73
2021/10/16 01:53:14;;;;;;;6.63;1.83;;;;;;;;;;5129675;27;20038;-73
2021/10/16 01:55:41;;;;;;;5.72;1.88;;;;;;;;;;5130828;27;20025;-73
2021/10/16 01:58:07;;;;;;;6.03;2.47;;;;;;;;;;5130428;27;20508;-73
2021/10/16 02:00:34;;;;;;;7.88;2.28;;;;;;;;;;5130602;27;20021;-73
2021/10/16 02:03:00;;;;;;;8.00;1.95;;;;;;;;;;5129157;27;20026;-73
2021/10/16 02:05:27;;;;;;;3.53;1.88;;;;;;;;;;5130587;27;20152;-73
2021/10/16 02:07:53;;;;;;;6.13;2.00;;;;;;;;;;5130535;27;20091;-73
2021/10/16 02:10:19;;;;;;;7.43;2.20;;;;;;;;;;5130662;27;20030;-73
2021/10/16 02:12:45;;;;;;;4.40;1.90;;;;;;;;;;5128904;27;20054;-73
2021/10/16 02:15:12;;;;;;;8.80;2.28;;;;;;;;;;5130475;27;20087;-73
2021/10/16 02:17:38;;;;;;;6.22;2.55;;;;;;;;;;5130265;27;20031;-73
2021/10/16 02:20:04;;;;;;;6.93;1.85;;;;;;;;;;5130366;27;20027;-73
2021/10/16 02:22:30;;;;;;;6.22;1.65;;;;;;;;;;5129076;27;20050;-73
2021/10/16 02:24:56;;;;;;;7.47;2.08;;;;;;;;;;5130563;27;20031;-73
2021/10/16 02:27:23;;;;;;;5.40;1.85;;;;;;;;;;5130527;27;20023;-73
2021/10/16 02:29:50;;;;;;;8.18;2.30;;;;;;;;;;5130163;27;20027;-72
2021/10/16 02:32:16;;;;;;;5.53;2.13;;;;;;;;;;5130202;27;20475;-73
2021/10/16 02:34:42;;;;;;;4.93;2.15;;;;;;;;;;5128256;27;20084;-73
2021/10/16 02:37:08;;;;;;;7.80;2.13;;;;;;;;;;5130021;27;20119;-73
2021/10/16 02:39:34;;;;;;;7.95;2.15;;;;;;;;;;5129872;27;20027;-73
2021/10/16 02:42:01;;;;;;;5.05;2.05;;;;;;;;;;5129862;27;20060;-73
2021/10/16 02:44:30;;;;;;;4.93;2.22;;;;;;;;;;5129727;27;20533;-73
2021/10/16 02:46:56;;;;;;;4.53;1.73;;;;;;;;;;5128014;27;20644;-73
2021/10/16 02:49:22;;;;;;;6.57;2.10;;;;;;;;;;5129979;27;20026;-73
2021/10/16 02:51:48;;;;;;;7.20;2.38;;;;;;;;;;5129922;27;20544;-73
2021/10/16 02:54:15;;;;;;;7.03;2.40;;;;;;;;;;5129589;27;20038;-73
2021/10/16 02:56:41;;;;;;;4.85;2.03;;;;;;;;;;5129436;27;20015;-73
2021/10/16 02:59:07;;;;;;;4.30;2.33;;;;;;;;;;5127865;27;20169;-73
2021/10/16 03:01:34;;;;;;;4.22;2.58;;;;;;;;;;5129427;27;20605;-73
2021/10/16 03:04:00;;;;;;;7.03;2.58;;;;;;;;;;5127848;27;20394;-73
2021/10/16 03:06:26;;;;;;;7.78;2.13;;;;;;;;;;5127082;27;20019;-73
2021/10/16 03:08:53;;;;;;;9.20;2.50;;;;;;;;;;5125047;27;20110;-73
2021/10/16 03:11:19;;;;;;;4.18;2.45;;;;;;;;;;5127020;27;20099;-73
2021/10/16 03:13:45;;;;;;;7.45;2.40;;;;;;;;;;5126667;27;20037;-73
2021/10/16 03:16:11;;;;;;;6.35;3.15;;;;;;;;;;5126704;27;20050;-73
2021/10/16 03:18:37;;;;;;;5.10;2.22;;;;;;;;;;5126742;27;20110;-73
2021/10/16 03:21:03;;;;;;;5.07;2.33;;;;;;;;;;5125214;27;20023;-72
2021/10/16 03:23:30;;;;;;;5.18;2.00;;;;;;;;;;5127484;27;20610;-73
2021/10/16 03:25:56;;;;;;;4.05;2.00;;;;;;;;;;5127079;27;20023;-73
2021/10/16 03:28:22;;;;;;;6.28;2.50;;;;;;;;;;5126672;27;20029;-73
2021/10/16 03:30:48;;;;;;;6.05;2.25;;;;;;;;;;5124642;27;20507;-73
2021/10/16 03:33:14;;;;;;;5.97;2.28;;;;;;;;;;5126737;27;20039;-73
2021/10/16 03:35:41;;;;;;;4.05;2.00;;;;;;;;;;5126094;27;20027;-73
2021/10/16 03:38:07;;;;;;;5.68;1.92;;;;;;;;;;5126409;27;20027;-73
2021/10/16 03:40:33;;;;;;;4.47;2.13;;;;;;;;;;5124721;27;20026;-73
2021/10/16 03:42:59;;;;;;;5.22;2.35;;;;;;;;;;5126199;27;20031;-73
2021/10/16 03:45:26;;;;;;;5.65;2.00;;;;;;;;;;5125848;27;20027;-72
2021/10/16 03:47:52;;;;;;;4.18;1.98;;;;;;;;;;5126303;27;20171;-73
2021/10/16 03:50:18;;;;;;;3.80;2.15;;;;;;;;;;5126138;27;20432;-73
2021/10/16 03:52:44;;;;;;;6.10;2.10;;;;;;;;;;5125694;27;20390;-73
2021/10/16 03:55:10;;;;;;;4.07;2.08;;;;;;;;;;5124812;27;20115;-73
2021/10/16 03:57:37;;;;;;;7.60;2.30;;;;;;;;;;5126593;27;20031;-73
2021/10/16 04:00:04;;;;;;;9.15;2.42;;;;;;;;;;5126062;27;20027;-73
2021/10/16 04:02:31;;;;;;;4.82;1.95;;;;;;;;;;5126021;27;20015;-73
2021/10/16 04:04:58;;;;;;;5.30;2.63;;;;;;;;;;5124295;27;20051;-73
2021/10/16 04:07:24;;;;;;;4.50;2.28;;;;;;;;;;5125535;27;20011;-73
2021/10/16 04:09:50;;;;;;;5.80;2.28;;;;;;;;;;5125544;27;20028;-73
2021/10/16 04:12:16;;;;;;;6.13;2.17;;;;;;;;;;5125462;27;20211;-73
2021/10/16 04:14:42;;;;;;;4.88;1.90;;;;;;;;;;5123612;27;20031;-73
2021/10/16 04:17:09;;;;;;;6.82;2.08;;;;;;;;;;5125710;27;20026;-73
2021/10/16 04:19:35;;;;;;;3.75;2.22;;;;;;;;;;5125707;27;20149;-73
2021/10/16 04:22:01;;;;;;;5.50;2.20;;;;;;;;;;5125649;27;20307;-73
2021/10/16 04:24:27;;;;;;;4.60;2.17;;;;;;;;;;5124240;27;20027;-73
2021/10/16 04:26:53;;;;;;;3.88;2.00;;;;;;;;;;5125484;27;20019;-73
2021/10/16 04:29:19;;;;;;;6.50;2.20;;;;;;;;;;5124588;27;20023;-73
2021/10/16 04:31:45;;;;;;;6.40;2.42;;;;;;;;;;5125745;27;20126;-73
2021/10/16 04:34:12;;;;;;;5.00;2.17;;;;;;;;;;5124981;27;20107;-73
2021/10/16 04:36:38;;;;;;;5.88;2.20;;;;;;;;;;5125535;27;20261;-72
2021/10/16 04:39:05;;;;;;;3.55;2.20;;;;;;;;;;5123649;27;20409;-73
2021/10/16 04:41:31;;;;;;;7.18;2.30;;;;;;;;;;5125213;27;20062;-73
2021/10/16 04:43:57;;;;;;;5.80;2.22;;;;;;;;;;5125432;27;20027;-73
2021/10/16 04:46:24;;;;;;;7.97;2.30;;;;;;;;;;5124926;27;20424;-73
2021/10/16 04:48:50;;;;;;;5.13;2.25;;;;;;;;;;5123570;27;20023;-73
2021/10/16 04:51:16;;;;;;;4.28;2.28;;;;;;;;;;5124952;28;20210;-73
2021/10/16 04:53:43;;;;;;;6.82;2.20;;;;;;;;;;5124339;28;20045;-73
2021/10/16 04:56:09;;;;;;;9.00;2.67;;;;;;;;;;5124987;28;20019;-73
2021/10/16 04:58:35;;;;;;;8.02;2.55;;;;;;;;;;5123438;28;20050;-73
2021/10/16 05:01:01;;;;;;;5.47;2.40;;;;;;;;;;5125031;28;20043;-73
2021/10/16 05:03:27;;;;;;;5.38;2.50;;;;;;;;;;5122935;28;20031;-73
2021/10/16 05:05:54;;;;;;;5.97;2.45;;;;;;;;;;5123598;28;20020;-73
2021/10/16 05:08:20;;;;;;;5.70;2.40;;;;;;;;;;5124969;28;20200;-73
2021/10/16 05:10:46;;;;;;;5.03;2.13;;;;;;;;;;5123309;28;20023;-73
2021/10/16 05:13:12;;;;;;;8.20;3.13;;;;;;;;;;5125204;28;20051;-73
2021/10/16 05:15:38;;;;;;;6.13;2.03;;;;;;;;;;5124595;28;20027;-73
2021/10/16 05:18:04;;;;;;;5.57;2.38;;;;;;;;;;5125214;28;20023;-73
2021/10/16 05:20:31;;;;;;;6.32;2.17;;;;;;;;;;5126789;27;20075;-73
2021/10/16 05:22:57;;;;;;;9.23;2.55;;;;;;;;;;5127558;27;20034;-73
2021/10/16 05:25:23;;;;;;;3.92;2.40;;;;;;;;;;5128909;27;20448;-73
2021/10/16 05:27:49;;;;;;;7.18;2.85;;;;;;;;;;5129137;27;20019;-73
2021/10/16 05:30:19;;;;;;;4.15;2.08;;;;;;;;;;5129032;27;20023;-73
2021/10/16 05:32:45;;;;;;;5.95;2.65;;;;;;;;;;5128492;27;20019;-73
2021/10/16 05:35:12;;;;;;;8.45;2.58;;;;;;;;;;5128762;27;20102;-72
2021/10/16 05:37:38;;;;;;;5.07;2.47;;;;;;;;;;5126783;27;20076;-73
2021/10/16 05:40:04;;;;;;;6.85;2.50;;;;;;;;;;5128964;27;20020;-73
2021/10/16 05:42:30;;;;;;;7.30;2.35;;;;;;;;;;5128729;27;20015;-72
2021/10/16 05:45:01;;;;;;;6.25;2.35;;;;;;;;;;5128628;27;20042;-72
2021/10/16 05:47:27;;;;;;;6.78;2.53;;;;;;;;;;5127039;27;20548;-72
2021/10/16 05:49:53;;;;;;;6.65;2.67;;;;;;;;;;5128213;27;20062;-73
2021/10/16 05:52:19;;;;;;;6.65;2.33;;;;;;;;;;5128233;27;20027;-72
2021/10/16 05:54:45;;;;;;;9.05;2.72;;;;;;;;;;5128828;27;20024;-73
2021/10/16 05:57:11;;;;;;;5.30;2.15;;;;;;;;;;5128217;27;20038;-73
2021/10/16 05:59:38;;;;;;;6.30;2.35;;;;;;;;;;5127717;27;20061;-73
2021/10/16 06:02:04;;;;;;;5.57;2.15;;;;;;;;;;5126255;27;20050;-73
2021/10/16 06:04:30;;;;;;;3.20;1.95;;;;;;;;;;5127973;27;20015;-73
2021/10/16 06:06:56;;;;;;;10.25;2.70;;;;;;;;;;5128194;27;20264;-73
2021/10/16 06:09:23;;;;;;;6.60;2.70;;;;;;;;;;5128481;27;20027;-72
2021/10/16 06:11:49;;;;;;;3.85;2.20;;;;;;;;;;5127851;27;20027;-73
2021/10/16 06:14:15;;;;;;;6.10;2.85;;;;;;;;;;5127451;27;20043;-73
2021/10/16 06:16:41;;;;;;;6.35;2.75;;;;;;;;;;5126694;27;20031;-73
2021/10/16 06:19:07;;;;;;;3.58;2.17;;;;;;;;;;5128036;27;20019;-73
2021/10/16 06:21:34;;;;;;;4.10;2.38;;;;;;;;;;5127709;27;20016;-73
2021/10/16 06:24:00;;;;;;;3.90;2.50;;;;;;;;;;5128059;27;20026;-73
2021/10/16 06:26:26;;;;;;;4.00;2.50;;;;;;;;;;5127853;27;20388;-73
2021/10/16 06:28:52;;;;;;;5.75;2.33;;;;;;;;;;5127669;27;20027;-73
2021/10/16 06:31:18;;;;;;;5.85;2.63;;;;;;;;;;5124316;27;20026;-73
2021/10/16 06:33:45;;;;;;;4.10;2.33;;;;;;;;;;5127284;27;20039;-72
2021/10/16 06:36:11;;;;;;;6.72;2.53;;;;;;;;;;5126428;27;20027;-72
2021/10/16 06:38:37;;;;;;;8.38;2.88;;;;;;;;;;5140119;27;20023;-73
2021/10/16 06:41:03;;;;;;;3.92;2.67;;;;;;;;;;5145613;27;20035;-73
2021/10/16 06:43:29;;;;;;;6.57;2.78;;;;;;;;;;5136812;27;20074;-73
2021/10/16 06:45:55;;;;;;;5.32;3.10;;;;;;;;;;5126376;27;20256;-72
2021/10/16 06:48:22;;;;;;;10.07;3.05;;;;;;;;;;5134082;27;20038;-72
2021/10/16 06:50:48;;;;;;;5.30;2.83;;;;;;;;;;5147363;27;20027;-73
2021/10/16 06:53:14;;;;;;;4.78;2.80;;;;;;;;;;5148095;27;20042;-73
2021/10/16 06:55:40;;;;;;;4.45;2.75;;;;;;;;;;5147596;27;20018;-73
2021/10/16 06:58:06;;;;;;;4.97;2.70;;;;;;;;;;5146218;27;20506;-73
2021/10/16 07:00:32;;;;;;;4.60;2.88;;;;;;;;;;5147952;27;20519;-73
2021/10/16 07:02:59;;;;;;;6.68;3.35;;;;;;;;;;5147916;27;20271;-73
2021/10/16 07:05:25;;;;;;;9.15;4.25;;;;;;;;;;5147383;27;20029;-73
2021/10/16 07:07:51;;;;;;;6.18;3.60;;;;;;;;;;5147590;27;20026;-73
2021/10/16 07:10:18;;;;;;;6.78;2.60;;;;;;;;;;5145849;27;20439;-73
2021/10/16 07:12:44;;;;;;;5.15;3.00;;;;;;;;;;5147473;27;20043;-73
2021/10/16 07:15:10;;;;;;;5.43;2.80;;;;;;;;;;5146974;27;20482;-72
2021/10/16 07:17:36;;;;;;;4.78;2.60;;;;;;;;;;5146834;27;20038;-73
2021/10/16 07:20:03;;;;;;;5.63;2.75;;;;;;;;;;5146172;27;20508;-72
2021/10/16 07:22:29;;;;;;;4.40;2.83;;;;;;;;;;5147478;27;20394;-72
2021/10/16 07:24:55;;;;;;;5.95;2.70;;;;;;;;;;5147044;27;20507;-72
2021/10/16 07:27:22;;;;;;;7.22;3.38;;;;;;;;;;5147644;27;20841;-72
2021/10/16 07:29:48;;;;;;;5.22;2.90;;;;;;;;;;5147346;27;20390;-73
2021/10/16 07:32:15;;;;;;;6.47;2.70;;;;;;;;;;5146796;27;20484;-72
2021/10/16 07:34:41;;;;;;;5.60;2.80;;;;;;;;;;5145048;27;20039;-72
2021/10/16 07:37:08;;;;;;;7.22;2.55;;;;;;;;;;5147571;27;20381;-72
2021/10/16 07:39:34;;;;;;;6.35;3.03;;;;;;;;;;5145792;27;20029;-72
2021/10/16 07:42:00;;;;;;;8.57;2.40;;;;;;;;;;5128631;27;20435;-72
2021/10/16 07:44:26;;;;;;;9.95;2.63;;;;;;;;;;5133826;27;20017;-72
2021/10/16 07:46:53;;;;;;;11.43;3.22;;;;;;;;;;5146148;27;20030;-73
2021/10/16 07:49:19;;;;;;;4.88;2.95;;;;;;;;;;5146241;27;20022;-73
2021/10/16 07:51:45;;;;;;;3.45;2.63;;;;;;;;;;5138592;27;20018;-72
2021/10/16 07:54:12;;;;;;;3.72;2.30;;;;;;;;;;5145554;27;20039;-73
2021/10/16 07:56:38;;;;;;;4.93;2.30;;;;;;;;;;5143353;27;20145;-73
2021/10/16 07:59:04;;;;;;;8.30;2.70;;;;;;;;;;5146147;27;20042;-73
2021/10/16 08:01:30;;;;;;;6.47;2.72;;;;;;;;;;5137129;27;20443;-72
2021/10/16 08:03:57;;;;;;;4.53;2.50;;;;;;;;;;5141975;27;20031;-73
2021/10/16 08:06:23;;;;;;;5.05;2.10;;;;;;;;;;5144048;27;20043;-73
2021/10/16 08:08:49;;;;;;;6.18;2.47;;;;;;;;;;5145730;27;20022;-72
2021/10/16 08:11:16;;;;;;;3.58;2.50;;;;;;;;;;5145404;27;20022;-73
2021/10/16 08:13:42;;;;;;;2.90;2.03;;;;;;;;;;5145489;27;20038;-72
2021/10/16 08:16:08;;;;;;;11.07;2.83;;;;;;;;;;5144176;27;20570;-73
2021/10/16 08:18:34;;;;;;;6.18;2.30;;;;;;;;;;5144409;27;20034;-73
2021/10/16 08:21:00;;;;;;;5.82;2.10;;;;;;;;;;5145787;27;20017;-73
2021/10/16 08:23:27;;;;;;;3.17;2.30;;;;;;;;;;5142479;27;20983;-72
2021/10/16 08:25:53;;;;;;;3.10;2.38;;;;;;;;;;5145479;27;20029;-72
2021/10/16 08:28:20;;;;;;;5.30;2.67;;;;;;;;;;5143890;27;20030;-73
2021/10/16 08:30:50;;;;;;;2.92;2.03;;;;;;;;;;5145641;27;20015;-73
2021/10/16 08:33:20;;;;;;;6.28;2.30;;;;;;;;;;5145142;27;20027;-73
2021/10/16 08:35:46;;;;;;;5.93;2.72;;;;;;;;;;5145565;27;20029;-73
2021/10/16 08:38:12;;;;;;;3.58;2.50;;;;;;;;;;5145795;27;20497;-73
2021/10/16 08:40:39;;;;;;;5.82;2.63;;;;;;;;;;5144772;27;20023;-72
2021/10/16 08:43:08;;;;;;;3.45;2.22;;;;;;;;;;5146264;27;20310;-73
2021/10/16 08:45:35;;;;;;;3.38;2.10;;;;;;;;;;5145805;27;20443;-72
2021/10/16 08:48:03;;;;;;;6.30;2.55;;;;;;;;;;5146000;27;20056;-73
2021/10/16 08:50:30;;;;;;;4.68;2.67;;;;;;;;;;5144656;27;20022;-72
2021/10/16 08:52:56;;;;;;;3.75;2.30;;;;;;;;;;5145345;27;20027;-73
2021/10/16 08:55:23;;;;;;;9.02;2.42;;;;;;;;;;5151804;27;20031;-73
2021/10/16 08:57:50;;;;;;;3.42;2.72;;;;;;;;;;5150418;27;20038;-73
2021/10/16 09:00:35;;;;;;;4.32;2.55;;;;;;;;;;5152061;27;20075;-73
2021/10/16 09:03:16;;;;;;;4.40;2.65;;;;;;;;;;5152257;27;20029;-73
2021/10/16 09:05:56;;;;;;;9.85;3.20;;;;;;;;;;5152888;27;20029;-73
2021/10/16 09:08:31;;;;;;;3.78;2.42;;;;;;;;;;5152632;27;20043;-72
2021/10/16 09:11:20;;;;;;;5.60;2.60;;;;;;;;;;5151148;27;20033;-73
2021/10/16 09:13:49;;;;;;;6.88;2.65;;;;;;;;;;5152535;27;20073;-72
2021/10/16 09:16:24;;;;;;;5.50;2.55;;;;;;;;;;5152641;27;20378;-73
2021/10/16 09:18:57;;;;;;;6.18;2.55;;;;;;;;;;5152350;27;20065;-73
2021/10/16 09:21:24;;;;;;;5.75;2.95;;;;;;;;;;5151124;27;20033;-73
2021/10/16 09:24:00;;;;;;;6.47;2.60;;;;;;;;;;5152366;27;20054;-73
2021/10/16 09:26:26;;;;;;;5.47;2.53;;;;;;;;;;5152405;27;20584;-73
2021/10/16 09:28:56;;;;;;;6.53;2.90;;;;;;;;;;5152326;27;20011;-73
2021/10/16 09:31:23;;;;;;;6.47;3.40;;;;;;;;;;5152397;27;20027;-73
2021/10/16 09:33:49;;;;;;;8.82;3.10;;;;;;;;;;5150498;27;20436;-73
2021/10/16 09:36:22;;;;;;;6.72;3.08;;;;;;;;;;5152441;27;20019;-73
2021/10/16 09:38:48;;;;;;;6.72;3.53;;;;;;;;;;5152505;27;20030;-72
2021/10/16 09:41:23;;;;;;;6.68;2.63;;;;;;;;;;5151530;27;20022;-73
2021/10/16 09:43:50;;;;;;;6.00;3.05;;;;;;;;;;5152161;27;20029;-73
2021/10/16 09:46:17;;;;;;;6.75;3.10;;;;;;;;;;5151058;27;20022;-73
2021/10/16 09:48:45;;;;;;;7.28;3.25;;;;;;;;;;5152189;27;20079;-72
2021/10/16 09:51:14;;;;;;;5.68;3.28;;;;;;;;;;5151788;27;20023;-73
2021/10/16 09:53:41;;;;;;;3.72;2.53;;;;;;;;;;5151745;27;20494;-73
2021/10/16 09:56:07;;;;;;;5.50;2.80;;;;;;;;;;5150245;27;20033;-72
2021/10/16 09:58:34;;;;;;;3.55;2.63;;;;;;;;;;5150877;27;20049;-73
2021/10/16 10:01:01;;;;;;;4.07;2.47;;;;;;;;;;5151499;27;20015;-73
2021/10/16 10:03:30;;;;;;;4.85;2.97;;;;;;;;;;5152167;27;20406;-73
2021/10/16 10:05:56;;;;;;;6.45;2.80;;;;;;;;;;5149520;27;20486;-73
2021/10/16 10:08:22;;;;;;;7.35;3.33;;;;;;;;;;5148387;27;20026;-72
2021/10/16 10:10:48;;;;;;;4.68;2.60;;;;;;;;;;5147123;27;20066;-73
2021/10/16 10:13:15;;;;;;;4.25;2.42;;;;;;;;;;5148387;27;20031;-73
2021/10/16 10:15:41;;;;;;;4.93;2.45;;;;;;;;;;5148357;27;20029;-73
2021/10/16 10:20:54;;;;;;;8.55;4.03;;;;;;;;;;5147271;27;20085;-72
2021/10/16 10:23:21;;;;;;;4.63;3.03;;;;;;;;;;5148250;27;20026;-73
2021/10/16 10:25:47;;;;;;;11.95;3.42;;;;;;;;;;5147475;27;20466;-72
2021/10/16 10:28:13;;;;;;;4.80;2.80;;;;;;;;;;5148475;27;20031;-72
2021/10/16 10:30:42;;;;;;;4.88;2.75;;;;;;;;;;5146688;27;20098;-73
2021/10/16 10:33:20;;;;;;;4.93;2.60;;;;;;;;;;5147794;27;20022;-72
2021/10/16 10:35:49;;;;;;;4.93;2.50;;;;;;;;;;5148270;27;20027;-73
2021/10/16 10:38:48;;;;;;;6.88;3.13;;;;;;;;;;5148118;27;20110;-73
2021/10/16 10:41:26;;;;;;;4.05;2.78;;;;;;;;;;5111136;27;20042;-73
2021/10/16 10:43:53;;;;;;;4.45;2.53;;;;;;;;;;5147905;27;20023;-72
2021/10/16 10:46:22;;;;;;;5.38;3.10;;;;;;;;;;5146382;27;20261;-73
2021/10/16 10:48:49;;;;;;;3.58;2.88;;;;;;;;;;5148501;27;20019;-73
2021/10/16 10:51:36;;;;;;;4.20;2.60;;;;;;;;;;5146367;27;20435;-73
2021/10/16 10:54:13;;;;;;;4.30;2.67;;;;;;;;;;5147261;27;20070;-72
2021/10/16 10:56:41;;;;;;;5.15;2.45;;;;;;;;;;5144829;27;20404;-73
2021/10/16 10:59:09;;;;;;;6.60;2.75;;;;;;;;;;5147771;27;20098;-73
2021/10/16 11:01:41;;;;;;;5.72;2.88;;;;;;;;;;5147865;27;20018;-72
2021/10/16 11:04:07;;;;;;;5.82;2.80;;;;;;;;;;5126505;27;20027;-73
2021/10/16 11:06:34;;;;;;;8.27;3.50;;;;;;;;;;5125316;27;20466;-72
2021/10/16 11:09:15;;;;;;;6.00;2.90;;;;;;;;;;5126911;27;20522;-72
2021/10/16 11:11:49;;;;;;;4.43;2.70;;;;;;;;;;5126676;27;20475;-72
2021/10/16 11:14:16;;;;;;;4.95;3.13;;;;;;;;;;5126711;27;20065;-72
2021/10/16 11:16:58;;;;;;;6.38;2.88;;;;;;;;;;5126063;27;20019;-72
2021/10/16 11:19:24;;;;;;;4.55;2.35;;;;;;;;;;5124092;27;20016;-72
2021/10/16 11:21:55;;;;;;;4.10;2.95;;;;;;;;;;5127010;27;20019;-73
2021/10/16 11:24:21;;;;;;;3.90;2.42;;;;;;;;;;5126511;27;20023;-73
2021/10/16 11:26:52;;;;;;;5.00;2.80;;;;;;;;;;5136048;27;20036;-72
2021/10/16 11:29:28;;;;;;;4.65;2.42;;;;;;;;;;5146291;27;20042;-73
2021/10/16 11:32:10;;;;;;;5.22;2.75;;;;;;;;;;5144717;27;20022;-73
2021/10/16 11:34:36;;;;;;;5.80;3.00;;;;;;;;;;5145987;27;20039;-73
2021/10/16 11:37:02;;;;;;;4.72;2.65;;;;;;;;;;5146095;27;20019;-72
2021/10/16 11:39:29;;;;;;;3.65;2.80;;;;;;;;;;5146015;27;20486;-73
2021/10/16 11:41:58;;;;;;;5.38;2.38;;;;;;;;;;5145760;27;20019;-72
2021/10/16 11:44:24;;;;;;;4.00;2.78;;;;;;;;;;5131392;27;20216;-73
2021/10/16 11:47:06;;;;;;;8.55;3.05;;;;;;;;;;5146047;27;20023;-73
2021/10/16 11:49:33;;;;;;;6.45;3.10;;;;;;;;;;5146240;27;20085;-73
2021/10/16 11:51:59;;;;;;;4.28;2.85;;;;;;;;;;5146608;27;20474;-73
2021/10/16 11:54:26;;;;;;;5.93;2.47;;;;;;;;;;5147163;27;20110;-72
2021/10/16 11:56:56;;;;;;;4.50;2.75;;;;;;;;;;5145021;27;20015;-73
2021/10/16 11:59:22;;;;;;;4.45;2.50;;;;;;;;;;5146257;27;20134;-73
2021/10/16 12:01:48;;;;;;;5.20;2.60;;;;;;;;;;5146672;27;20094;-73
2021/10/16 12:04:15;;;;;;;4.32;2.40;;;;;;;;;;5146329;27;20101;-73
2021/10/16 12:06:42;;;;;;;6.65;2.72;;;;;;;;;;5145122;27;20098;-72
2021/10/16 12:09:12;;;;;;;3.80;2.60;;;;;;;;;;5146666;27;20018;-73
2021/10/16 12:11:39;;;;;;;5.43;2.83;;;;;;;;;;5146094;27;20026;-73
2021/10/16 12:14:06;;;;;;;4.18;2.75;;;;;;;;;;5146284;27;20031;-73
2021/10/16 12:16:39;;;;;;;5.70;2.45;;;;;;;;;;5146178;27;20021;-73
2021/10/16 12:19:12;;;;;;;5.85;2.83;;;;;;;;;;5146985;27;20030;-72
2021/10/16 12:21:39;;;;;;;6.32;2.65;;;;;;;;;;5144515;27;20018;-72
2021/10/16 12:24:08;;;;;;;4.93;2.30;;;;;;;;;;5146111;27;20027;-73
2021/10/16 12:26:36;;;;;;;7.70;2.67;;;;;;;;;;5146571;27;20034;-73
2021/10/16 12:29:26;;;;;;;7.95;2.65;;;;;;;;;;5145975;27;20454;-72
2021/10/16 12:31:52;;;;;;;5.53;2.80;;;;;;;;;;5146189;27;20467;-73
2021/10/16 12:34:20;;;;;;;4.38;2.50;;;;;;;;;;5143472;27;20062;-73
2021/10/16 12:36:50;;;;;;;3.72;2.40;;;;;;;;;;5144884;27;20023;-73
2021/10/16 12:39:24;;;;;;;4.25;2.33;;;;;;;;;;5145423;27;20046;-72
2021/10/16 12:41:50;;;;;;;4.97;2.80;;;;;;;;;;5145122;27;20019;-73
2021/10/16 12:44:17;;;;;;;6.70;3.20;;;;;;;;;;5143412;27;20039;-72
2021/10/16 12:46:43;;;;;;;7.93;3.13;;;;;;;;;;5143344;27;20018;-72
2021/10/16 12:49:25;;;;;;;5.32;2.90;;;;;;;;;;5145030;27;20348;-73
2021/10/16 12:51:51;;;;;;;9.33;2.90;;;;;;;;;;5145208;27;20462;-73
2021/10/16 12:54:29;;;;;;;3.28;2.70;;;;;;;;;;5145060;27;20027;-73
2021/10/16 12:57:05;;;;;;;4.32;2.60;;;;;;;;;;5143034;27;20350;-73
2021/10/16 12:59:31;;;;;;;4.10;2.65;;;;;;;;;;5140852;27;20038;-72
2021/10/16 13:01:58;;;;;;;6.03;3.00;;;;;;;;;;5144897;27;20099;-72
2021/10/16 13:04:24;;;;;;;5.93;2.80;;;;;;;;;;5140552;27;20037;-73
2021/10/16 13:06:50;;;;;;;8.65;3.53;;;;;;;;;;5123426;27;20020;-73
2021/10/16 13:09:16;;;;;;;4.97;3.63;;;;;;;;;;5124789;27;20471;-73
2021/10/16 13:11:42;;;;;;;7.65;3.25;;;;;;;;;;5125163;27;20378;-72
2021/10/16 13:14:09;;;;;;;8.23;3.58;;;;;;;;;;5124784;27;20187;-73
2021/10/16 13:16:35;;;;;;;8.25;3.38;;;;;;;;;;5123323;27;20134;-73
2021/10/16 13:19:01;;;;;;;6.25;3.25;;;;;;;;;;5125068;27;20274;-73
2021/10/16 13:21:27;;;;;;;7.10;3.28;;;;;;;;;;5124658;27;20499;-73
2021/10/16 13:23:53;;;;;;;6.45;3.60;;;;;;;;;;5124578;27;20732;-73
2021/10/16 13:26:19;;;;;;;4.07;3.28;;;;;;;;;;5124432;27;20024;-72
2021/10/16 13:28:45;;;;;;;9.75;3.72;;;;;;;;;;5124881;27;20116;-73
2021/10/16 13:31:12;;;;;;;7.88;3.88;;;;;;;;;;5123404;27;20423;-73
2021/10/16 13:33:38;;;;;;;3.90;2.90;;;;;;;;;;5124830;27;20119;-73
2021/10/16 13:36:04;;;;;;;6.70;3.47;;;;;;;;;;5124703;27;20552;-72
2021/10/16 13:38:30;;;;;;;6.57;3.55;;;;;;;;;;5125123;27;20352;-73
2021/10/16 13:40:56;;;;;;;5.30;3.22;;;;;;;;;;5125822;27;20015;-73
2021/10/16 13:43:22;;;;;;;8.95;3.22;;;;;;;;;;5126892;27;20033;-73
2021/10/16 13:45:49;;;;;;;5.07;3.10;;;;;;;;;;5128797;27;20015;-73
2021/10/16 13:48:15;;;;;;;6.68;3.08;;;;;;;;;;5128384;27;20023;-73
2021/10/16 13:50:41;;;;;;;5.50;3.58;;;;;;;;;;5128165;27;20027;-73
2021/10/16 13:53:07;;;;;;;4.45;2.88;;;;;;;;;;5128245;27;20023;-73
2021/10/16 13:55:34;;;;;;;9.20;3.30;;;;;;;;;;5128202;27;20260;-73
2021/10/16 13:58:00;;;;;;;4.68;2.65;;;;;;;;;;5125855;27;20394;-73
2021/10/16 14:00:26;;;;;;;6.28;3.03;;;;;;;;;;5126912;27;20379;-73
2021/10/16 14:02:52;;;;;;;3.80;2.53;;;;;;;;;;5127989;27;20106;-73
2021/10/16 14:05:18;;;;;;;4.57;2.50;;;;;;;;;;5128037;27;20318;-73
2021/10/16 14:07:44;;;;;;;5.18;2.13;;;;;;;;;;5126514;27;20019;-72
2021/10/16 14:10:11;;;;;;;4.78;2.70;;;;;;;;;;5126569;27;20463;-73
2021/10/16 14:12:37;;;;;;;4.90;2.70;;;;;;;;;;5127655;27;20028;-73
2021/10/16 14:15:03;;;;;;;2.92;2.08;;;;;;;;;;5127522;27;20027;-73
2021/10/16 14:17:29;;;;;;;4.00;2.00;;;;;;;;;;5126114;27;20357;-72
2021/10/16 14:19:55;;;;;;;4.47;2.10;;;;;;;;;;5128183;27;20084;-73
2021/10/16 14:22:22;;;;;;;6.70;2.20;;;;;;;;;;5127899;27;20027;-73
2021/10/16 14:24:53;;;;;;;5.75;2.53;;;;;;;;;;5127553;27;20031;-73
2021/10/16 14:27:19;;;;;;;3.38;2.33;;;;;;;;;;5126070;27;20160;-73
2021/10/16 14:29:46;;;;;;;4.28;2.20;;;;;;;;;;5127558;27;20065;-73
2021/10/16 14:32:12;;;;;;;2.97;1.90;;;;;;;;;;5127765;27;20035;-73
2021/10/16 14:34:38;;;;;;;7.47;2.33;;;;;;;;;;5126337;27;20053;-73
2021/10/16 14:37:04;;;;;;;7.30;2.63;;;;;;;;;;5128454;27;20068;-73
2021/10/16 14:39:30;;;;;;;7.57;2.22;;;;;;;;;;5147490;27;20525;-72
2021/10/16 14:41:56;;;;;;;4.15;1.98;;;;;;;;;;5147652;27;20055;-73
2021/10/16 14:44:23;;;;;;;3.60;2.10;;;;;;;;;;5147580;27;20096;-73
2021/10/16 14:46:49;;;;;;;4.72;1.92;;;;;;;;;;5147261;27;20467;-73